Spring Creek, Nebraska
Current Conditions -  °F | °C
As of 8:53 PM on Saturday 25 Oct 2014 (Local Time) from KBBW Reporting Station
Clear Clear  
Wind Chill: 57°   Ceiling: Unl
Heat Index: 57°   Visibility: 10mi
Dew Point: 42°   Wind: 7mph
Humidity: 57%   Direction: 100°E
Pressure: 30.01"   Gusts: NA
Location:  41.4141°N, 99.3925°W
Report Text: KBBW 260153Z AUTO 10006KT 10SM CLR 14/06 A3001 RMK AO2 SLP161 T01390056
Loading
Personal Weather Stations






























Interactive Weather Map
Tropical Storm Tracking
New forecast layout! Learn more

10-Day Weather Forecast

Advertisements
Track Severe Weather on mobile